sensor_id;sensor_type;location;lat;lon;timestamp;P1;durP1;ratioP1;P2;durP2;ratioP2
16502;SDS011;53067;48.114;11.694;2023-06-10T00:00:10;7.72;;;6.83;;
16502;SDS011;53067;48.114;11.694;2023-06-10T00:02:40;8.40;;;7.65;;
16502;SDS011;53067;48.114;11.694;2023-06-10T00:05:09;7.77;;;6.97;;
16502;SDS011;53067;48.114;11.694;2023-06-10T00:07:37;7.33;;;6.72;;
16502;SDS011;53067;48.114;11.694;2023-06-10T00:10:05;7.78;;;7.05;;
16502;SDS011;53067;48.114;11.694;2023-06-10T00:12:36;7.40;;;6.90;;
16502;SDS011;53067;48.114;11.694;2023-06-10T00:15:04;7.53;;;7.03;;
16502;SDS011;53067;48.114;11.694;2023-06-10T00:17:33;7.37;;;6.87;;
16502;SDS011;53067;48.114;11.694;2023-06-10T00:20:02;7.15;;;6.55;;
16502;SDS011;53067;48.114;11.694;2023-06-10T00:22:34;7.57;;;6.60;;
16502;SDS011;53067;48.114;11.694;2023-06-10T00:25:04;7.47;;;6.78;;
16502;SDS011;53067;48.114;11.694;2023-06-10T00:27:33;7.17;;;6.60;;
16502;SDS011;53067;48.114;11.694;2023-06-10T00:30:07;7.57;;;6.97;;
16502;SDS011;53067;48.114;11.694;2023-06-10T00:32:36;6.33;;;5.92;;
16502;SDS011;53067;48.114;11.694;2023-06-10T00:35:10;6.20;;;5.80;;
16502;SDS011;53067;48.114;11.694;2023-06-10T00:37:37;7.60;;;7.00;;
16502;SDS011;53067;48.114;11.694;2023-06-10T00:40:05;6.95;;;6.45;;
16502;SDS011;53067;48.114;11.694;2023-06-10T00:42:35;7.28;;;6.78;;
16502;SDS011;53067;48.114;11.694;2023-06-10T00:45:02;7.17;;;6.67;;
16502;SDS011;53067;48.114;11.694;2023-06-10T00:47:30;6.90;;;6.30;;
16502;SDS011;53067;48.114;11.694;2023-06-10T00:50:01;6.75;;;6.28;;
16502;SDS011;53067;48.114;11.694;2023-06-10T00:52:30;6.77;;;6.27;;
16502;SDS011;53067;48.114;11.694;2023-06-10T00:54:57;6.70;;;6.20;;
16502;SDS011;53067;48.114;11.694;2023-06-10T00:57:26;7.20;;;6.50;;
16502;SDS011;53067;48.114;11.694;2023-06-10T00:59:55;6.90;;;6.40;;
16502;SDS011;53067;48.114;11.694;2023-06-10T01:02:23;7.40;;;6.70;;
16502;SDS011;53067;48.114;11.694;2023-06-10T01:04:51;7.27;;;6.67;;
16502;SDS011;53067;48.114;11.694;2023-06-10T01:07:28;6.60;;;6.00;;
16502;SDS011;53067;48.114;11.694;2023-06-10T01:10:09;6.63;;;6.13;;
16502;SDS011;53067;48.114;11.694;2023-06-10T01:12:46;6.40;;;5.90;;
16502;SDS011;53067;48.114;11.694;2023-06-10T01:15:20;6.70;;;6.20;;
16502;SDS011;53067;48.114;11.694;2023-06-10T01:20:28;7.27;;;6.67;;
16502;SDS011;53067;48.114;11.694;2023-06-10T01:22:58;6.37;;;5.80;;
16502;SDS011;53067;48.114;11.694;2023-06-10T01:25:26;6.80;;;6.30;;
16502;SDS011;53067;48.114;11.694;2023-06-10T01:33:51;6.78;;;6.17;;
16502;SDS011;53067;48.114;11.694;2023-06-10T01:36:19;6.80;;;6.30;;
16502;SDS011;53067;48.114;11.694;2023-06-10T01:38:50;6.60;;;6.10;;
16502;SDS011;53067;48.114;11.694;2023-06-10T01:41:19;6.77;;;6.30;;
16502;SDS011;53067;48.114;11.694;2023-06-10T01:43:48;6.90;;;6.30;;
16502;SDS011;53067;48.114;11.694;2023-06-10T01:46:16;7.10;;;6.50;;
16502;SDS011;53067;48.114;11.694;2023-06-10T01:48:47;6.70;;;6.20;;
16502;SDS011;53067;48.114;11.694;2023-06-10T01:51:15;7.27;;;6.67;;
16502;SDS011;53067;48.114;11.694;2023-06-10T01:53:42;7.03;;;6.53;;
16502;SDS011;53067;48.114;11.694;2023-06-10T01:56:10;7.43;;;6.93;;
16502;SDS011;53067;48.114;11.694;2023-06-10T01:58:39;7.07;;;6.47;;
16502;SDS011;53067;48.114;11.694;2023-06-10T02:01:07;6.80;;;6.30;;
16502;SDS011;53067;48.114;11.694;2023-06-10T02:03:34;7.00;;;6.50;;
16502;SDS011;53067;48.114;11.694;2023-06-10T02:06:02;7.30;;;6.60;;
16502;SDS011;53067;48.114;11.694;2023-06-10T02:08:30;6.63;;;6.13;;
16502;SDS011;53067;48.114;11.694;2023-06-10T02:10:57;7.07;;;6.57;;
16502;SDS011;53067;48.114;11.694;2023-06-10T02:13:25;7.13;;;6.63;;
16502;SDS011;53067;48.114;11.694;2023-06-10T02:15:52;7.27;;;6.67;;
16502;SDS011;53067;48.114;11.694;2023-06-10T02:18:20;7.30;;;6.80;;
16502;SDS011;53067;48.114;11.694;2023-06-10T02:20:47;6.83;;;6.33;;
16502;SDS011;53067;48.114;11.694;2023-06-10T02:23:15;6.97;;;6.47;;
16502;SDS011;53067;48.114;11.694;2023-06-10T02:25:42;7.10;;;6.60;;
16502;SDS011;53067;48.114;11.694;2023-06-10T02:28:10;7.53;;;6.97;;
16502;SDS011;53067;48.114;11.694;2023-06-10T02:30:41;7.47;;;6.87;;
16502;SDS011;53067;48.114;11.694;2023-06-10T02:33:09;7.90;;;7.30;;
16502;SDS011;53067;48.114;11.694;2023-06-10T02:35:40;7.60;;;7.00;;
16502;SDS011;53067;48.114;11.694;2023-06-10T02:38:08;7.00;;;6.50;;
16502;SDS011;53067;48.114;11.694;2023-06-10T02:40:35;7.00;;;6.30;;
16502;SDS011;53067;48.114;11.694;2023-06-10T02:43:03;7.83;;;7.23;;
16502;SDS011;53067;48.114;11.694;2023-06-10T02:45:31;7.47;;;6.90;;
16502;SDS011;53067;48.114;11.694;2023-06-10T02:47:58;8.00;;;7.40;;
16502;SDS011;53067;48.114;11.694;2023-06-10T02:50:26;7.33;;;6.80;;
16502;SDS011;53067;48.114;11.694;2023-06-10T02:52:53;6.77;;;6.17;;
16502;SDS011;53067;48.114;11.694;2023-06-10T02:55:21;7.83;;;7.20;;
16502;SDS011;53067;48.114;11.694;2023-06-10T02:57:50;7.37;;;6.87;;
16502;SDS011;53067;48.114;11.694;2023-06-10T03:00:18;8.80;;;7.10;;
16502;SDS011;53067;48.114;11.694;2023-06-10T03:02:47;7.60;;;7.00;;
16502;SDS011;53067;48.114;11.694;2023-06-10T03:05:14;7.17;;;6.67;;
16502;SDS011;53067;48.114;11.694;2023-06-10T03:07:42;7.53;;;6.97;;
16502;SDS011;53067;48.114;11.694;2023-06-10T03:10:12;7.43;;;6.83;;
16502;SDS011;53067;48.114;11.694;2023-06-10T03:12:39;7.70;;;7.10;;
16502;SDS011;53067;48.114;11.694;2023-06-10T03:15:07;7.23;;;6.73;;
16502;SDS011;53067;48.114;11.694;2023-06-10T03:17:35;7.10;;;6.60;;
16502;SDS011;53067;48.114;11.694;2023-06-10T03:20:02;7.23;;;6.53;;
16502;SDS011;53067;48.114;11.694;2023-06-10T03:22:50;7.07;;;6.53;;
16502;SDS011;53067;48.114;11.694;2023-06-10T03:25:17;7.60;;;7.00;;
16502;SDS011;53067;48.114;11.694;2023-06-10T03:27:46;7.50;;;7.00;;
16502;SDS011;53067;48.114;11.694;2023-06-10T03:30:14;7.43;;;6.93;;
16502;SDS011;53067;48.114;11.694;2023-06-10T03:32:41;7.43;;;6.83;;
16502;SDS011;53067;48.114;11.694;2023-06-10T03:35:09;7.57;;;6.97;;
16502;SDS011;53067;48.114;11.694;2023-06-10T03:37:37;7.30;;;6.70;;
16502;SDS011;53067;48.114;11.694;2023-06-10T03:40:07;6.87;;;6.37;;
16502;SDS011;53067;48.114;11.694;2023-06-10T03:42:35;7.50;;;6.93;;
16502;SDS011;53067;48.114;11.694;2023-06-10T03:45:02;7.37;;;6.77;;
16502;SDS011;53067;48.114;11.694;2023-06-10T03:47:35;7.63;;;7.03;;
16502;SDS011;53067;48.114;11.694;2023-06-10T03:50:04;7.70;;;7.13;;
16502;SDS011;53067;48.114;11.694;2023-06-10T03:52:32;6.80;;;6.30;;
16502;SDS011;53067;48.114;11.694;2023-06-10T03:54:59;7.90;;;7.30;;
16502;SDS011;53067;48.114;11.694;2023-06-10T03:57:30;8.90;;;6.80;;
16502;SDS011;53067;48.114;11.694;2023-06-10T03:59:58;8.30;;;7.60;;
16502;SDS011;53067;48.114;11.694;2023-06-10T04:02:25;7.90;;;7.20;;
16502;SDS011;53067;48.114;11.694;2023-06-10T04:04:53;7.73;;;7.13;;
16502;SDS011;53067;48.114;11.694;2023-06-10T04:07:21;8.47;;;7.70;;
16502;SDS011;53067;48.114;11.694;2023-06-10T04:09:49;7.87;;;7.17;;
16502;SDS011;53067;48.114;11.694;2023-06-10T04:12:16;7.03;;;6.53;;
16502;SDS011;53067;48.114;11.694;2023-06-10T04:14:44;7.87;;;7.27;;
16502;SDS011;53067;48.114;11.694;2023-06-10T04:17:12;7.57;;;6.97;;
16502;SDS011;53067;48.114;11.694;2023-06-10T04:19:43;7.43;;;6.83;;
16502;SDS011;53067;48.114;11.694;2023-06-10T04:22:11;7.90;;;7.30;;
16502;SDS011;53067;48.114;11.694;2023-06-10T04:24:38;7.57;;;6.97;;
16502;SDS011;53067;48.114;11.694;2023-06-10T04:27:07;7.43;;;6.73;;
16502;SDS011;53067;48.114;11.694;2023-06-10T04:29:34;7.83;;;7.23;;
16502;SDS011;53067;48.114;11.694;2023-06-10T04:32:04;8.87;;;8.17;;
16502;SDS011;53067;48.114;11.694;2023-06-10T04:34:35;9.60;;;8.70;;
16502;SDS011;53067;48.114;11.694;2023-06-10T04:37:06;9.93;;;9.03;;
16502;SDS011;53067;48.114;11.694;2023-06-10T04:39:34;10.03;;;9.23;;
16502;SDS011;53067;48.114;11.694;2023-06-10T04:42:01;10.07;;;9.20;;
16502;SDS011;53067;48.114;11.694;2023-06-10T04:44:29;10.03;;;9.13;;
16502;SDS011;53067;48.114;11.694;2023-06-10T04:46:56;8.87;;;8.17;;
16502;SDS011;53067;48.114;11.694;2023-06-10T04:49:24;10.20;;;9.40;;
16502;SDS011;53067;48.114;11.694;2023-06-10T04:51:51;10.60;;;9.53;;
16502;SDS011;53067;48.114;11.694;2023-06-10T04:54:19;10.27;;;9.37;;
16502;SDS011;53067;48.114;11.694;2023-06-10T04:56:46;14.13;;;8.80;;
16502;SDS011;53067;48.114;11.694;2023-06-10T04:59:14;10.47;;;9.50;;
16502;SDS011;53067;48.114;11.694;2023-06-10T05:01:41;10.63;;;9.63;;
16502;SDS011;53067;48.114;11.694;2023-06-10T05:04:09;10.60;;;9.63;;
16502;SDS011;53067;48.114;11.694;2023-06-10T05:06:36;10.83;;;9.83;;
16502;SDS011;53067;48.114;11.694;2023-06-10T05:09:04;11.40;;;10.37;;
16502;SDS011;53067;48.114;11.694;2023-06-10T05:11:31;9.93;;;9.03;;
16502;SDS011;53067;48.114;11.694;2023-06-10T05:13:59;10.60;;;9.70;;
16502;SDS011;53067;48.114;11.694;2023-06-10T05:16:26;10.20;;;9.20;;
16502;SDS011;53067;48.114;11.694;2023-06-10T05:18:54;10.57;;;9.47;;
16502;SDS011;53067;48.114;11.694;2023-06-10T05:21:21;10.83;;;9.80;;
16502;SDS011;53067;48.114;11.694;2023-06-10T05:23:49;10.77;;;9.87;;
16502;SDS011;53067;48.114;11.694;2023-06-10T05:26:17;10.10;;;9.20;;
16502;SDS011;53067;48.114;11.694;2023-06-10T05:28:44;11.50;;;10.50;;
16502;SDS011;53067;48.114;11.694;2023-06-10T05:31:12;9.97;;;9.17;;
16502;SDS011;53067;48.114;11.694;2023-06-10T05:33:39;11.40;;;10.37;;
16502;SDS011;53067;48.114;11.694;2023-06-10T05:36:07;11.00;;;9.90;;
16502;SDS011;53067;48.114;11.694;2023-06-10T05:38:34;11.33;;;10.08;;
16502;SDS011;53067;48.114;11.694;2023-06-10T05:41:02;10.97;;;9.87;;
16502;SDS011;53067;48.114;11.694;2023-06-10T05:43:29;11.08;;;9.98;;
16502;SDS011;53067;48.114;11.694;2023-06-10T05:45:57;10.93;;;9.83;;
16502;SDS011;53067;48.114;11.694;2023-06-10T05:48:24;11.63;;;10.53;;
16502;SDS011;53067;48.114;11.694;2023-06-10T05:50:52;10.63;;;9.63;;
16502;SDS011;53067;48.114;11.694;2023-06-10T05:53:19;11.43;;;9.90;;
16502;SDS011;53067;48.114;11.694;2023-06-10T05:55:48;12.78;;;10.75;;
16502;SDS011;53067;48.114;11.694;2023-06-10T05:58:15;11.47;;;10.43;;
16502;SDS011;53067;48.114;11.694;2023-06-10T06:00:43;12.37;;;11.18;;
16502;SDS011;53067;48.114;11.694;2023-06-10T06:03:10;11.23;;;10.13;;
16502;SDS011;53067;48.114;11.694;2023-06-10T06:05:38;11.50;;;10.30;;
16502;SDS011;53067;48.114;11.694;2023-06-10T06:08:06;11.40;;;10.40;;
16502;SDS011;53067;48.114;11.694;2023-06-10T06:10:34;11.63;;;10.50;;
16502;SDS011;53067;48.114;11.694;2023-06-10T06:13:01;10.15;;;9.35;;
16502;SDS011;53067;48.114;11.694;2023-06-10T06:15:29;11.80;;;10.65;;
16502;SDS011;53067;48.114;11.694;2023-06-10T06:17:56;11.22;;;10.18;;
16502;SDS011;53067;48.114;11.694;2023-06-10T06:20:24;10.68;;;9.88;;
16502;SDS011;53067;48.114;11.694;2023-06-10T06:22:51;9.95;;;9.05;;
16502;SDS011;53067;48.114;11.694;2023-06-10T06:25:19;9.78;;;8.88;;
16502;SDS011;53067;48.114;11.694;2023-06-10T06:27:46;9.63;;;8.80;;
16502;SDS011;53067;48.114;11.694;2023-06-10T06:30:14;9.43;;;8.65;;
16502;SDS011;53067;48.114;11.694;2023-06-10T06:32:41;8.98;;;8.18;;
16502;SDS011;53067;48.114;11.694;2023-06-10T06:35:09;10.10;;;9.23;;
16502;SDS011;53067;48.114;11.694;2023-06-10T06:37:37;9.35;;;8.55;;
16502;SDS011;53067;48.114;11.694;2023-06-10T06:40:05;9.18;;;8.48;;
16502;SDS011;53067;48.114;11.694;2023-06-10T06:42:33;10.35;;;9.38;;
16502;SDS011;53067;48.114;11.694;2023-06-10T06:45:00;9.93;;;9.00;;
16502;SDS011;53067;48.114;11.694;2023-06-10T06:47:28;9.50;;;8.70;;
16502;SDS011;53067;48.114;11.694;2023-06-10T06:49:56;9.18;;;8.45;;
16502;SDS011;53067;48.114;11.694;2023-06-10T06:52:23;9.05;;;8.23;;
16502;SDS011;53067;48.114;11.694;2023-06-10T06:54:51;8.35;;;7.65;;
16502;SDS011;53067;48.114;11.694;2023-06-10T06:57:18;9.00;;;8.20;;
16502;SDS011;53067;48.114;11.694;2023-06-10T06:59:46;8.30;;;7.60;;
16502;SDS011;53067;48.114;11.694;2023-06-10T07:02:13;9.95;;;9.05;;
16502;SDS011;53067;48.114;11.694;2023-06-10T07:04:41;9.50;;;8.70;;
16502;SDS011;53067;48.114;11.694;2023-06-10T07:07:08;8.18;;;7.47;;
16502;SDS011;53067;48.114;11.694;2023-06-10T07:09:36;7.95;;;7.35;;
16502;SDS011;53067;48.114;11.694;2023-06-10T07:12:04;8.23;;;7.53;;
16502;SDS011;53067;48.114;11.694;2023-06-10T07:14:33;8.60;;;7.70;;
16502;SDS011;53067;48.114;11.694;2023-06-10T07:17:00;8.47;;;7.87;;
16502;SDS011;53067;48.114;11.694;2023-06-10T07:19:27;8.28;;;7.58;;
16502;SDS011;53067;48.114;11.694;2023-06-10T07:21:55;8.85;;;7.15;;
16502;SDS011;53067;48.114;11.694;2023-06-10T07:24:22;7.97;;;7.28;;
16502;SDS011;53067;48.114;11.694;2023-06-10T07:26:50;7.42;;;6.83;;
16502;SDS011;53067;48.114;11.694;2023-06-10T07:29:18;8.80;;;7.95;;
16502;SDS011;53067;48.114;11.694;2023-06-10T07:31:45;7.00;;;6.50;;
16502;SDS011;53067;48.114;11.694;2023-06-10T07:34:13;7.75;;;7.15;;
16502;SDS011;53067;48.114;11.694;2023-06-10T07:36:40;7.25;;;6.75;;
16502;SDS011;53067;48.114;11.694;2023-06-10T07:39:08;7.05;;;6.45;;
16502;SDS011;53067;48.114;11.694;2023-06-10T07:41:35;7.17;;;6.58;;
16502;SDS011;53067;48.114;11.694;2023-06-10T07:44:03;7.25;;;6.65;;
16502;SDS011;53067;48.114;11.694;2023-06-10T07:46:31;10.75;;;7.33;;
16502;SDS011;53067;48.114;11.694;2023-06-10T07:48:58;7.12;;;6.53;;
16502;SDS011;53067;48.114;11.694;2023-06-10T07:51:26;6.67;;;6.05;;
16502;SDS011;53067;48.114;11.694;2023-06-10T07:53:53;5.92;;;5.47;;
16502;SDS011;53067;48.114;11.694;2023-06-10T07:56:21;5.35;;;4.85;;
16502;SDS011;53067;48.114;11.694;2023-06-10T07:58:48;5.55;;;5.05;;
16502;SDS011;53067;48.114;11.694;2023-06-10T08:01:16;5.50;;;5.03;;
16502;SDS011;53067;48.114;11.694;2023-06-10T08:03:43;5.65;;;5.15;;
16502;SDS011;53067;48.114;11.694;2023-06-10T08:06:10;5.33;;;4.85;;
16502;SDS011;53067;48.114;11.694;2023-06-10T08:08:38;6.22;;;4.97;;
16502;SDS011;53067;48.114;11.694;2023-06-10T08:11:12;4.87;;;4.58;;
16502;SDS011;53067;48.114;11.694;2023-06-10T08:13:40;5.12;;;4.72;;
16502;SDS011;53067;48.114;11.694;2023-06-10T08:16:08;5.28;;;4.87;;
16502;SDS011;53067;48.114;11.694;2023-06-10T08:18:35;5.37;;;4.87;;
16502;SDS011;53067;48.114;11.694;2023-06-10T08:21:11;4.87;;;4.58;;
16502;SDS011;53067;48.114;11.694;2023-06-10T08:23:38;4.70;;;4.40;;
16502;SDS011;53067;48.114;11.694;2023-06-10T08:26:05;4.55;;;4.25;;
16502;SDS011;53067;48.114;11.694;2023-06-10T08:28:33;7.87;;;5.12;;
16502;SDS011;53067;48.114;11.694;2023-06-10T08:31:01;5.15;;;4.72;;
16502;SDS011;53067;48.114;11.694;2023-06-10T08:33:28;4.58;;;4.15;;
16502;SDS011;53067;48.114;11.694;2023-06-10T08:35:56;4.55;;;4.25;;
16502;SDS011;53067;48.114;11.694;2023-06-10T08:38:23;4.50;;;4.20;;
16502;SDS011;53067;48.114;11.694;2023-06-10T08:40:51;4.42;;;4.12;;
16502;SDS011;53067;48.114;11.694;2023-06-10T08:43:28;4.35;;;4.05;;
16502;SDS011;53067;48.114;11.694;2023-06-10T08:45:59;5.83;;;4.15;;
16502;SDS011;53067;48.114;11.694;2023-06-10T08:48:30;3.75;;;3.55;;
16502;SDS011;53067;48.114;11.694;2023-06-10T08:51:01;4.55;;;4.25;;
16502;SDS011;53067;48.114;11.694;2023-06-10T08:53:31;4.33;;;4.03;;
16502;SDS011;53067;48.114;11.694;2023-06-10T08:56:02;4.10;;;3.75;;
16502;SDS011;53067;48.114;11.694;2023-06-10T08:58:32;4.30;;;4.00;;
16502;SDS011;53067;48.114;11.694;2023-06-10T09:01:12;3.98;;;3.72;;
16502;SDS011;53067;48.114;11.694;2023-06-10T09:03:42;3.80;;;3.60;;
16502;SDS011;53067;48.114;11.694;2023-06-10T09:06:18;3.92;;;3.72;;
16502;SDS011;53067;48.114;11.694;2023-06-10T09:08:48;3.98;;;3.77;;
16502;SDS011;53067;48.114;11.694;2023-06-10T09:11:17;3.77;;;3.58;;
16502;SDS011;53067;48.114;11.694;2023-06-10T09:13:45;4.42;;;4.12;;
16502;SDS011;53067;48.114;11.694;2023-06-10T09:16:12;3.47;;;3.25;;
16502;SDS011;53067;48.114;11.694;2023-06-10T09:18:41;3.92;;;3.65;;
16502;SDS011;53067;48.114;11.694;2023-06-10T09:21:09;4.42;;;4.10;;
16502;SDS011;53067;48.114;11.694;2023-06-10T09:23:37;5.80;;;5.30;;
16502;SDS011;53067;48.114;11.694;2023-06-10T09:26:07;5.40;;;5.00;;
16502;SDS011;53067;48.114;11.694;2023-06-10T09:28:37;5.47;;;5.03;;
16502;SDS011;53067;48.114;11.694;2023-06-10T09:31:11;5.10;;;4.80;;
16502;SDS011;53067;48.114;11.694;2023-06-10T09:33:39;5.47;;;5.08;;
16502;SDS011;53067;48.114;11.694;2023-06-10T09:36:07;5.87;;;5.47;;
16502;SDS011;53067;48.114;11.694;2023-06-10T09:38:34;5.00;;;4.70;;
16502;SDS011;53067;48.114;11.694;2023-06-10T09:41:02;4.80;;;4.50;;
16502;SDS011;53067;48.114;11.694;2023-06-10T09:43:40;4.90;;;4.58;;
16502;SDS011;53067;48.114;11.694;2023-06-10T09:46:16;4.92;;;4.62;;
16502;SDS011;53067;48.114;11.694;2023-06-10T09:48:45;8.18;;;4.53;;
16502;SDS011;53067;48.114;11.694;2023-06-10T09:51:14;4.60;;;4.30;;
16502;SDS011;53067;48.114;11.694;2023-06-10T09:53:44;4.78;;;4.15;;
16502;SDS011;53067;48.114;11.694;2023-06-10T09:56:16;4.67;;;4.28;;
16502;SDS011;53067;48.114;11.694;2023-06-10T09:58:45;4.53;;;4.22;;
16502;SDS011;53067;48.114;11.694;2023-06-10T10:01:13;4.37;;;4.08;;
16502;SDS011;53067;48.114;11.694;2023-06-10T10:03:50;4.25;;;3.98;;
16502;SDS011;53067;48.114;11.694;2023-06-10T10:06:15;4.70;;;4.40;;
16502;SDS011;53067;48.114;11.694;2023-06-10T10:08:44;4.10;;;3.90;;
16502;SDS011;53067;48.114;11.694;2023-06-10T10:11:14;4.25;;;3.95;;
16502;SDS011;53067;48.114;11.694;2023-06-10T10:13:45;4.08;;;3.85;;
16502;SDS011;53067;48.114;11.694;2023-06-10T10:16:20;3.70;;;3.40;;
16502;SDS011;53067;48.114;11.694;2023-06-10T10:18:51;4.37;;;4.08;;
16502;SDS011;53067;48.114;11.694;2023-06-10T10:21:21;3.65;;;3.45;;
16502;SDS011;53067;48.114;11.694;2023-06-10T10:26:29;3.77;;;3.58;;
16502;SDS011;53067;48.114;11.694;2023-06-10T10:29:05;4.15;;;3.85;;
16502;SDS011;53067;48.114;11.694;2023-06-10T10:31:50;4.12;;;3.92;;
16502;SDS011;53067;48.114;11.694;2023-06-10T10:34:25;3.87;;;3.58;;
16502;SDS011;53067;48.114;11.694;2023-06-10T10:37:12;4.15;;;3.85;;
16502;SDS011;53067;48.114;11.694;2023-06-10T10:39:40;4.15;;;3.80;;
16502;SDS011;53067;48.114;11.694;2023-06-10T10:42:08;4.00;;;3.72;;
16502;SDS011;53067;48.114;11.694;2023-06-10T10:44:45;4.03;;;3.70;;
16502;SDS011;53067;48.114;11.694;2023-06-10T10:47:13;4.15;;;3.85;;
16502;SDS011;53067;48.114;11.694;2023-06-10T10:49:44;4.12;;;3.85;;
16502;SDS011;53067;48.114;11.694;2023-06-10T10:52:14;3.92;;;3.72;;
16502;SDS011;53067;48.114;11.694;2023-06-10T10:54:46;3.75;;;3.55;;
16502;SDS011;53067;48.114;11.694;2023-06-10T10:57:14;4.03;;;3.75;;
16502;SDS011;53067;48.114;11.694;2023-06-10T11:05:13;3.50;;;3.20;;
16502;SDS011;53067;48.114;11.694;2023-06-10T11:07:51;3.40;;;3.10;;
16502;SDS011;53067;48.114;11.694;2023-06-10T11:10:33;3.20;;;3.00;;
16502;SDS011;53067;48.114;11.694;2023-06-10T11:12:58;3.20;;;3.00;;
16502;SDS011;53067;48.114;11.694;2023-06-10T11:15:27;3.45;;;3.20;;
16502;SDS011;53067;48.114;11.694;2023-06-10T11:20:59;3.10;;;2.90;;
16502;SDS011;53067;48.114;11.694;2023-06-10T11:23:45;3.27;;;3.08;;
16502;SDS011;53067;48.114;11.694;2023-06-10T11:26:16;3.10;;;2.80;;
16502;SDS011;53067;48.114;11.694;2023-06-10T11:31:29;2.60;;;2.50;;
16502;SDS011;53067;48.114;11.694;2023-06-10T11:34:02;3.17;;;2.98;;
16502;SDS011;53067;48.114;11.694;2023-06-10T11:36:31;2.77;;;2.67;;
16502;SDS011;53067;48.114;11.694;2023-06-10T11:41:50;2.75;;;2.65;;
16502;SDS011;53067;48.114;11.694;2023-06-10T11:44:18;2.87;;;2.77;;
16502;SDS011;53067;48.114;11.694;2023-06-10T11:46:47;2.50;;;2.40;;
16502;SDS011;53067;48.114;11.694;2023-06-10T11:49:15;3.02;;;2.83;;
16502;SDS011;53067;48.114;11.694;2023-06-10T11:51:43;2.85;;;2.75;;
16502;SDS011;53067;48.114;11.694;2023-06-10T11:54:12;2.62;;;2.52;;
16502;SDS011;53067;48.114;11.694;2023-06-10T11:56:41;2.37;;;2.27;;
16502;SDS011;53067;48.114;11.694;2023-06-10T11:59:08;2.85;;;2.70;;
16502;SDS011;53067;48.114;11.694;2023-06-10T12:01:37;2.50;;;2.40;;
16502;SDS011;53067;48.114;11.694;2023-06-10T12:04:07;2.52;;;2.35;;
16502;SDS011;53067;48.114;11.694;2023-06-10T12:06:39;3.00;;;2.80;;
16502;SDS011;53067;48.114;11.694;2023-06-10T12:09:22;2.20;;;2.10;;
16502;SDS011;53067;48.114;11.694;2023-06-10T12:12:01;2.55;;;2.35;;
16502;SDS011;53067;48.114;11.694;2023-06-10T12:14:54;2.40;;;2.30;;
16502;SDS011;53067;48.114;11.694;2023-06-10T12:20:06;2.70;;;2.50;;
16502;SDS011;53067;48.114;11.694;2023-06-10T12:22:37;2.87;;;2.70;;
16502;SDS011;53067;48.114;11.694;2023-06-10T12:25:06;2.72;;;2.62;;
16502;SDS011;53067;48.114;11.694;2023-06-10T12:27:35;2.60;;;2.50;;
16502;SDS011;53067;48.114;11.694;2023-06-10T12:30:04;2.80;;;2.62;;
16502;SDS011;53067;48.114;11.694;2023-06-10T12:32:36;2.95;;;2.70;;
16502;SDS011;53067;48.114;11.694;2023-06-10T12:35:05;2.92;;;2.80;;
16502;SDS011;53067;48.114;11.694;2023-06-10T12:37:34;2.70;;;2.50;;
16502;SDS011;53067;48.114;11.694;2023-06-10T12:40:03;3.17;;;3.05;;
16502;SDS011;53067;48.114;11.694;2023-06-10T12:42:32;3.05;;;2.85;;
16502;SDS011;53067;48.114;11.694;2023-06-10T12:45:00;3.22;;;3.02;;
16502;SDS011;53067;48.114;11.694;2023-06-10T12:47:37;3.70;;;3.40;;
16502;SDS011;53067;48.114;11.694;2023-06-10T12:50:02;3.02;;;2.83;;
16502;SDS011;53067;48.114;11.694;2023-06-10T12:52:30;3.15;;;3.05;;
16502;SDS011;53067;48.114;11.694;2023-06-10T12:54:58;3.75;;;3.45;;
16502;SDS011;53067;48.114;11.694;2023-06-10T12:57:26;3.75;;;3.52;;
16502;SDS011;53067;48.114;11.694;2023-06-10T12:59:55;4.53;;;4.17;;
16502;SDS011;53067;48.114;11.694;2023-06-10T13:02:24;3.90;;;3.70;;
16502;SDS011;53067;48.114;11.694;2023-06-10T13:04:52;4.20;;;3.83;;
16502;SDS011;53067;48.114;11.694;2023-06-10T13:07:19;4.03;;;3.62;;
16502;SDS011;53067;48.114;11.694;2023-06-10T13:09:48;3.80;;;3.60;;
16502;SDS011;53067;48.114;11.694;2023-06-10T13:12:16;4.78;;;4.37;;
16502;SDS011;53067;48.114;11.694;2023-06-10T13:14:43;4.25;;;3.95;;
16502;SDS011;53067;48.114;11.694;2023-06-10T13:17:11;3.72;;;3.52;;
16502;SDS011;53067;48.114;11.694;2023-06-10T13:19:38;3.60;;;3.33;;
16502;SDS011;53067;48.114;11.694;2023-06-10T13:22:06;3.90;;;3.70;;
16502;SDS011;53067;48.114;11.694;2023-06-10T13:24:33;3.80;;;3.50;;
16502;SDS011;53067;48.114;11.694;2023-06-10T13:27:01;3.40;;;3.20;;
16502;SDS011;53067;48.114;11.694;2023-06-10T13:29:28;3.67;;;3.47;;
16502;SDS011;53067;48.114;11.694;2023-06-10T13:31:56;3.90;;;3.70;;
16502;SDS011;53067;48.114;11.694;2023-06-10T13:34:24;3.17;;;2.98;;
16502;SDS011;53067;48.114;11.694;2023-06-10T13:36:51;3.50;;;3.22;;
16502;SDS011;53067;48.114;11.694;2023-06-10T13:39:19;3.92;;;3.00;;
16502;SDS011;53067;48.114;11.694;2023-06-10T13:41:46;3.67;;;3.47;;
16502;SDS011;53067;48.114;11.694;2023-06-10T13:44:14;3.35;;;3.05;;
16502;SDS011;53067;48.114;11.694;2023-06-10T13:46:41;2.85;;;2.72;;
16502;SDS011;53067;48.114;11.694;2023-06-10T13:49:09;3.58;;;3.35;;
16502;SDS011;53067;48.114;11.694;2023-06-10T13:51:37;2.95;;;2.75;;
16502;SDS011;53067;48.114;11.694;2023-06-10T13:54:04;3.15;;;2.95;;
16502;SDS011;53067;48.114;11.694;2023-06-10T13:56:32;2.80;;;2.60;;
16502;SDS011;53067;48.114;11.694;2023-06-10T13:59:01;3.17;;;2.98;;
16502;SDS011;53067;48.114;11.694;2023-06-10T14:01:29;3.30;;;3.10;;
16502;SDS011;53067;48.114;11.694;2023-06-10T14:03:56;3.12;;;3.00;;
16502;SDS011;53067;48.114;11.694;2023-06-10T14:06:24;3.25;;;2.98;;
16502;SDS011;53067;48.114;11.694;2023-06-10T14:08:52;3.30;;;3.10;;
16502;SDS011;53067;48.114;11.694;2023-06-10T14:11:21;3.55;;;3.25;;
16502;SDS011;53067;48.114;11.694;2023-06-10T14:13:49;3.20;;;3.00;;
16502;SDS011;53067;48.114;11.694;2023-06-10T14:16:16;3.47;;;3.17;;
16502;SDS011;53067;48.114;11.694;2023-06-10T14:18:44;3.30;;;3.10;;
16502;SDS011;53067;48.114;11.694;2023-06-10T14:21:12;3.85;;;3.60;;
16502;SDS011;53067;48.114;11.694;2023-06-10T14:23:39;3.50;;;3.05;;
16502;SDS011;53067;48.114;11.694;2023-06-10T14:26:07;3.67;;;3.30;;
16502;SDS011;53067;48.114;11.694;2023-06-10T14:28:34;2.80;;;2.60;;
16502;SDS011;53067;48.114;11.694;2023-06-10T14:31:02;3.37;;;3.10;;
16502;SDS011;53067;48.114;11.694;2023-06-10T14:33:30;3.20;;;3.00;;
16502;SDS011;53067;48.114;11.694;2023-06-10T14:35:57;2.67;;;2.58;;
16502;SDS011;53067;48.114;11.694;2023-06-10T14:38:25;2.87;;;2.77;;
16502;SDS011;53067;48.114;11.694;2023-06-10T14:40:52;3.25;;;2.87;;
16502;SDS011;53067;48.114;11.694;2023-06-10T14:43:20;2.85;;;2.75;;
16502;SDS011;53067;48.114;11.694;2023-06-10T14:45:47;2.75;;;2.65;;
16502;SDS011;53067;48.114;11.694;2023-06-10T14:48:16;2.70;;;2.50;;
16502;SDS011;53067;48.114;11.694;2023-06-10T14:50:44;2.80;;;2.70;;
16502;SDS011;53067;48.114;11.694;2023-06-10T14:53:13;3.30;;;3.10;;
16502;SDS011;53067;48.114;11.694;2023-06-10T14:55:43;3.70;;;3.40;;
16502;SDS011;53067;48.114;11.694;2023-06-10T14:58:10;3.83;;;3.62;;
16502;SDS011;53067;48.114;11.694;2023-06-10T15:00:38;3.58;;;3.37;;
16502;SDS011;53067;48.114;11.694;2023-06-10T15:03:21;3.72;;;3.45;;
16502;SDS011;53067;48.114;11.694;2023-06-10T15:05:49;3.80;;;3.60;;
16502;SDS011;53067;48.114;11.694;2023-06-10T15:08:16;3.55;;;3.35;;
16502;SDS011;53067;48.114;11.694;2023-06-10T15:10:44;3.90;;;3.62;;